sensor_id;sensor_type;location;lat;lon;timestamp;temperature;humidity
6484;DHT22;3275;52.376;9.694;2023-08-21T08:14:02;22.20;99.90
6484;DHT22;3275;52.376;9.694;2023-08-21T08:16:29;22.10;99.90
6484;DHT22;3275;52.376;9.694;2023-08-21T08:18:55;22.20;99.90
6484;DHT22;3275;52.376;9.694;2023-08-21T08:21:24;22.30;99.90
6484;DHT22;3275;52.376;9.694;2023-08-21T08:23:50;22.20;99.90
6484;DHT22;3275;52.376;9.694;2023-08-21T08:26:17;22.30;99.90
6484;DHT22;3275;52.376;9.694;2023-08-21T08:28:44;22.30;99.90
6484;DHT22;3275;52.376;9.694;2023-08-21T08:31:15;22.40;99.90
6484;DHT22;3275;52.376;9.694;2023-08-21T08:33:42;22.40;99.90
6484;DHT22;3275;52.376;9.694;2023-08-21T08:36:09;22.50;99.90
6484;DHT22;3275;52.376;9.694;2023-08-21T08:38:36;22.60;99.90
6484;DHT22;3275;52.376;9.694;2023-08-21T08:41:12;22.70;99.90
6484;DHT22;3275;52.376;9.694;2023-08-21T08:43:44;22.70;99.90
6484;DHT22;3275;52.376;9.694;2023-08-21T08:46:11;22.80;99.90
6484;DHT22;3275;52.376;9.694;2023-08-21T08:48:39;22.80;99.90
6484;DHT22;3275;52.376;9.694;2023-08-21T08:51:06;22.90;99.90
6484;DHT22;3275;52.376;9.694;2023-08-21T08:53:33;22.80;99.90
6484;DHT22;3275;52.376;9.694;2023-08-21T08:56:01;22.90;99.90
6484;DHT22;3275;52.376;9.694;2023-08-21T08:58:29;23.10;99.90
6484;DHT22;3275;52.376;9.694;2023-08-21T09:00:55;23.20;99.90
6484;DHT22;3275;52.376;9.694;2023-08-21T09:03:22;23.30;99.90
6484;DHT22;3275;52.376;9.694;2023-08-21T09:05:50;23.30;99.90
6484;DHT22;3275;52.376;9.694;2023-08-21T09:08:17;23.30;99.30
6484;DHT22;3275;52.376;9.694;2023-08-21T09:10:43;23.20;98.90
6484;DHT22;3275;52.376;9.694;2023-08-21T09:13:15;23.10;98.00
6484;DHT22;3275;52.376;9.694;2023-08-21T09:15:43;23.20;98.20
6484;DHT22;3275;52.376;9.694;2023-08-21T09:18:10;23.30;98.60
6484;DHT22;3275;52.376;9.694;2023-08-21T09:20:37;23.30;98.70
6484;DHT22;3275;52.376;9.694;2023-08-21T09:23:05;23.30;98.90
6484;DHT22;3275;52.376;9.694;2023-08-21T09:25:36;23.40;98.90
6484;DHT22;3275;52.376;9.694;2023-08-21T09:28:05;23.50;99.10
6484;DHT22;3275;52.376;9.694;2023-08-21T09:30:44;23.50;99.50
6484;DHT22;3275;52.376;9.694;2023-08-21T09:33:11;23.50;98.50
6484;DHT22;3275;52.376;9.694;2023-08-21T09:35:38;23.50;98.60
6484;DHT22;3275;52.376;9.694;2023-08-21T09:38:09;23.50;98.10
6484;DHT22;3275;52.376;9.694;2023-08-21T09:40:39;23.60;98.00
6484;DHT22;3275;52.376;9.694;2023-08-21T09:43:07;23.60;97.50
6484;DHT22;3275;52.376;9.694;2023-08-21T09:45:34;23.70;97.50
6484;DHT22;3275;52.376;9.694;2023-08-21T09:48:02;23.70;97.30
6484;DHT22;3275;52.376;9.694;2023-08-21T09:50:29;23.70;96.70
6484;DHT22;3275;52.376;9.694;2023-08-21T09:52:57;23.70;96.50
6484;DHT22;3275;52.376;9.694;2023-08-21T09:55:25;23.70;96.10
6484;DHT22;3275;52.376;9.694;2023-08-21T09:57:57;23.70;96.20
6484;DHT22;3275;52.376;9.694;2023-08-21T10:00:27;23.80;96.50
6484;DHT22;3275;52.376;9.694;2023-08-21T10:02:59;23.80;97.20
6484;DHT22;3275;52.376;9.694;2023-08-21T10:05:26;23.70;96.40
6484;DHT22;3275;52.376;9.694;2023-08-21T10:07:55;23.60;94.30
6484;DHT22;3275;52.376;9.694;2023-08-21T10:10:22;23.50;94.40
6484;DHT22;3275;52.376;9.694;2023-08-21T10:12:50;23.50;94.50
6484;DHT22;3275;52.376;9.694;2023-08-21T10:15:17;23.50;94.30
6484;DHT22;3275;52.376;9.694;2023-08-21T10:17:44;23.50;94.80
6484;DHT22;3275;52.376;9.694;2023-08-21T10:20:11;23.50;94.90
6484;DHT22;3275;52.376;9.694;2023-08-21T10:22:43;23.50;94.00
6484;DHT22;3275;52.376;9.694;2023-08-21T10:25:17;23.40;95.20
6484;DHT22;3275;52.376;9.694;2023-08-21T10:27:45;23.40;94.80
6484;DHT22;3275;52.376;9.694;2023-08-21T10:30:15;23.60;95.60
6484;DHT22;3275;52.376;9.694;2023-08-21T10:32:46;23.60;95.80
6484;DHT22;3275;52.376;9.694;2023-08-21T10:35:19;23.60;95.70
6484;DHT22;3275;52.376;9.694;2023-08-21T10:38:05;23.60;94.90
6484;DHT22;3275;52.376;9.694;2023-08-21T10:40:32;23.60;94.40
6484;DHT22;3275;52.376;9.694;2023-08-21T10:42:59;23.60;95.50
6484;DHT22;3275;52.376;9.694;2023-08-21T10:45:27;23.50;95.60
6484;DHT22;3275;52.376;9.694;2023-08-21T10:47:57;23.60;96.00
6484;DHT22;3275;52.376;9.694;2023-08-21T10:50:24;23.70;95.90
6484;DHT22;3275;52.376;9.694;2023-08-21T10:52:52;23.80;95.40
6484;DHT22;3275;52.376;9.694;2023-08-21T10:55:20;24.00;95.90
6484;DHT22;3275;52.376;9.694;2023-08-21T10:57:48;24.10;95.00
6484;DHT22;3275;52.376;9.694;2023-08-21T11:00:16;24.20;95.10
6484;DHT22;3275;52.376;9.694;2023-08-21T11:02:47;24.30;95.00
6484;DHT22;3275;52.376;9.694;2023-08-21T11:05:14;24.30;94.60
6484;DHT22;3275;52.376;9.694;2023-08-21T11:07:42;24.30;94.30
6484;DHT22;3275;52.376;9.694;2023-08-21T11:10:11;24.40;94.40
6484;DHT22;3275;52.376;9.694;2023-08-21T11:12:49;24.40;94.20
6484;DHT22;3275;52.376;9.694;2023-08-21T11:15:16;24.50;94.00
6484;DHT22;3275;52.376;9.694;2023-08-21T11:17:52;24.40;92.90
6484;DHT22;3275;52.376;9.694;2023-08-21T11:20:19;24.30;93.30
6484;DHT22;3275;52.376;9.694;2023-08-21T11:22:46;24.40;93.00
6484;DHT22;3275;52.376;9.694;2023-08-21T11:25:14;24.50;92.20
6484;DHT22;3275;52.376;9.694;2023-08-21T11:27:41;24.40;92.90
6484;DHT22;3275;52.376;9.694;2023-08-21T11:30:11;24.40;92.50
6484;DHT22;3275;52.376;9.694;2023-08-21T11:32:38;24.40;92.60
6484;DHT22;3275;52.376;9.694;2023-08-21T11:35:06;24.40;93.90
6484;DHT22;3275;52.376;9.694;2023-08-21T11:37:33;24.30;93.80
6484;DHT22;3275;52.376;9.694;2023-08-21T11:40:07;24.30;93.90
6484;DHT22;3275;52.376;9.694;2023-08-21T11:42:34;24.30;94.20
6484;DHT22;3275;52.376;9.694;2023-08-21T11:45:05;24.10;94.50
6484;DHT22;3275;52.376;9.694;2023-08-21T11:47:33;24.00;94.80
6484;DHT22;3275;52.376;9.694;2023-08-21T11:50:02;24.00;94.50
6484;DHT22;3275;52.376;9.694;2023-08-21T11:52:31;23.90;95.20
6484;DHT22;3275;52.376;9.694;2023-08-21T11:54:58;23.90;95.50
6484;DHT22;3275;52.376;9.694;2023-08-21T11:57:25;23.90;94.60
6484;DHT22;3275;52.376;9.694;2023-08-21T11:59:54;24.00;95.60
6484;DHT22;3275;52.376;9.694;2023-08-21T12:02:22;24.30;95.80
6484;DHT22;3275;52.376;9.694;2023-08-21T12:04:52;24.50;95.60
6484;DHT22;3275;52.376;9.694;2023-08-21T12:07:19;24.80;95.00
6484;DHT22;3275;52.376;9.694;2023-08-21T12:09:48;25.00;94.40
6484;DHT22;3275;52.376;9.694;2023-08-21T12:12:15;25.00;94.30
6484;DHT22;3275;52.376;9.694;2023-08-21T12:14:41;24.90;94.10
6484;DHT22;3275;52.376;9.694;2023-08-21T12:17:08;25.00;93.80
6484;DHT22;3275;52.376;9.694;2023-08-21T12:19:35;25.10;94.30
6484;DHT22;3275;52.376;9.694;2023-08-21T12:22:02;25.50;94.30
6484;DHT22;3275;52.376;9.694;2023-08-21T12:24:29;25.60;93.50
6484;DHT22;3275;52.376;9.694;2023-08-21T12:26:57;26.30;93.90
6484;DHT22;3275;52.376;9.694;2023-08-21T12:29:23;27.20;91.20
6484;DHT22;3275;52.376;9.694;2023-08-21T12:31:50;27.50;91.30
6484;DHT22;3275;52.376;9.694;2023-08-21T12:34:17;27.60;91.30
6484;DHT22;3275;52.376;9.694;2023-08-21T12:36:43;27.20;91.00
6484;DHT22;3275;52.376;9.694;2023-08-21T12:39:10;26.60;90.60
6484;DHT22;3275;52.376;9.694;2023-08-21T12:41:37;26.30;91.60
6484;DHT22;3275;52.376;9.694;2023-08-21T12:44:05;26.10;91.90
6484;DHT22;3275;52.376;9.694;2023-08-21T12:46:34;25.80;92.90
6484;DHT22;3275;52.376;9.694;2023-08-21T12:49:01;25.60;92.90
6484;DHT22;3275;52.376;9.694;2023-08-21T12:51:28;26.30;93.10
6484;DHT22;3275;52.376;9.694;2023-08-21T12:53:55;26.80;91.60
6484;DHT22;3275;52.376;9.694;2023-08-21T12:56:22;27.00;90.70
6484;DHT22;3275;52.376;9.694;2023-08-21T12:58:49;27.90;90.30
6484;DHT22;3275;52.376;9.694;2023-08-21T13:01:17;29.60;85.50
6484;DHT22;3275;52.376;9.694;2023-08-21T13:03:44;31.00;82.30
6484;DHT22;3275;52.376;9.694;2023-08-21T13:06:12;32.20;80.90
6484;DHT22;3275;52.376;9.694;2023-08-21T13:08:39;32.10;79.50
6484;DHT22;3275;52.376;9.694;2023-08-21T13:11:06;32.40;79.70
6484;DHT22;3275;52.376;9.694;2023-08-21T13:13:33;32.80;80.20
6484;DHT22;3275;52.376;9.694;2023-08-21T13:16:00;32.80;78.50
6484;DHT22;3275;52.376;9.694;2023-08-21T13:18:28;31.60;75.60
6484;DHT22;3275;52.376;9.694;2023-08-21T13:20:55;30.80;79.90
6484;DHT22;3275;52.376;9.694;2023-08-21T13:23:21;31.30;78.40
6484;DHT22;3275;52.376;9.694;2023-08-21T13:25:48;32.30;78.50
6484;DHT22;3275;52.376;9.694;2023-08-21T13:28:15;33.50;72.90
6484;DHT22;3275;52.376;9.694;2023-08-21T13:30:41;34.40;70.10
6484;DHT22;3275;52.376;9.694;2023-08-21T13:33:08;34.50;71.00
6484;DHT22;3275;52.376;9.694;2023-08-21T13:35:36;34.80;68.60
6484;DHT22;3275;52.376;9.694;2023-08-21T13:38:03;35.50;70.40
6484;DHT22;3275;52.376;9.694;2023-08-21T13:40:31;35.90;66.10
6484;DHT22;3275;52.376;9.694;2023-08-21T13:42:58;35.30;65.40
6484;DHT22;3275;52.376;9.694;2023-08-21T13:45:25;34.40;67.80
6484;DHT22;3275;52.376;9.694;2023-08-21T13:47:52;33.30;69.20
6484;DHT22;3275;52.376;9.694;2023-08-21T13:50:19;32.90;72.30
6484;DHT22;3275;52.376;9.694;2023-08-21T13:52:47;32.40;71.40
6484;DHT22;3275;52.376;9.694;2023-08-21T13:55:14;31.90;74.00
6484;DHT22;3275;52.376;9.694;2023-08-21T13:57:42;31.20;76.80
6484;DHT22;3275;52.376;9.694;2023-08-21T14:00:11;30.40;77.00
6484;DHT22;3275;52.376;9.694;2023-08-21T14:02:39;30.00;77.30
6484;DHT22;3275;52.376;9.694;2023-08-21T14:05:07;29.40;75.70
6484;DHT22;3275;52.376;9.694;2023-08-21T14:07:34;29.20;79.60
6484;DHT22;3275;52.376;9.694;2023-08-21T14:10:03;28.80;80.70
6484;DHT22;3275;52.376;9.694;2023-08-21T14:12:31;28.50;82.50
6484;DHT22;3275;52.376;9.694;2023-08-21T14:14:59;28.30;80.90
6484;DHT22;3275;52.376;9.694;2023-08-21T14:17:26;28.20;79.80
6484;DHT22;3275;52.376;9.694;2023-08-21T14:19:53;28.10;81.40
6484;DHT22;3275;52.376;9.694;2023-08-21T14:22:20;28.00;80.30
6484;DHT22;3275;52.376;9.694;2023-08-21T14:24:47;27.80;80.50
6484;DHT22;3275;52.376;9.694;2023-08-21T14:27:15;27.70;81.40
6484;DHT22;3275;52.376;9.694;2023-08-21T14:29:42;27.80;83.30
6484;DHT22;3275;52.376;9.694;2023-08-21T14:32:09;27.70;82.30
6484;DHT22;3275;52.376;9.694;2023-08-21T14:34:36;27.60;82.40
6484;DHT22;3275;52.376;9.694;2023-08-21T14:37:03;27.50;81.40
6484;DHT22;3275;52.376;9.694;2023-08-21T14:39:29;27.60;81.30
6484;DHT22;3275;52.376;9.694;2023-08-21T14:41:57;27.60;81.00
6484;DHT22;3275;52.376;9.694;2023-08-21T14:44:25;27.60;81.10
6484;DHT22;3275;52.376;9.694;2023-08-21T14:46:53;27.60;81.00
6484;DHT22;3275;52.376;9.694;2023-08-21T14:49:20;27.50;79.60
6484;DHT22;3275;52.376;9.694;2023-08-21T14:51:47;27.50;80.50
6484;DHT22;3275;52.376;9.694;2023-08-21T14:54:14;27.50;80.40
6484;DHT22;3275;52.376;9.694;2023-08-21T14:56:41;27.40;76.10
6484;DHT22;3275;52.376;9.694;2023-08-21T14:59:07;27.20;76.90
6484;DHT22;3275;52.376;9.694;2023-08-21T15:01:38;27.10;79.20
6484;DHT22;3275;52.376;9.694;2023-08-21T15:04:05;27.10;81.00
6484;DHT22;3275;52.376;9.694;2023-08-21T15:06:32;27.00;82.40
6484;DHT22;3275;52.376;9.694;2023-08-21T15:08:58;27.00;82.80
6484;DHT22;3275;52.376;9.694;2023-08-21T15:11:25;27.10;80.10
6484;DHT22;3275;52.376;9.694;2023-08-21T15:13:52;27.00;80.00
6484;DHT22;3275;52.376;9.694;2023-08-21T15:16:18;27.10;80.70
6484;DHT22;3275;52.376;9.694;2023-08-21T15:18:46;27.10;79.60
6484;DHT22;3275;52.376;9.694;2023-08-21T15:21:17;27.10;80.60
6484;DHT22;3275;52.376;9.694;2023-08-21T15:23:44;27.10;80.30
6484;DHT22;3275;52.376;9.694;2023-08-21T15:26:11;27.00;80.80
6484;DHT22;3275;52.376;9.694;2023-08-21T15:28:38;27.00;80.00
6484;DHT22;3275;52.376;9.694;2023-08-21T15:31:04;27.00;81.00
6484;DHT22;3275;52.376;9.694;2023-08-21T15:33:32;26.90;80.20
6484;DHT22;3275;52.376;9.694;2023-08-21T15:36:00;26.80;81.80
6484;DHT22;3275;52.376;9.694;2023-08-21T15:38:27;26.80;83.00
6484;DHT22;3275;52.376;9.694;2023-08-21T15:40:54;26.80;84.10
6484;DHT22;3275;52.376;9.694;2023-08-21T15:43:20;26.80;83.80
6484;DHT22;3275;52.376;9.694;2023-08-21T15:45:47;26.80;83.90
6484;DHT22;3275;52.376;9.694;2023-08-21T15:48:14;26.70;84.60
6484;DHT22;3275;52.376;9.694;2023-08-21T15:50:41;26.70;84.40
6484;DHT22;3275;52.376;9.694;2023-08-21T15:53:09;26.50;83.90
6484;DHT22;3275;52.376;9.694;2023-08-21T15:55:36;26.50;83.30
6484;DHT22;3275;52.376;9.694;2023-08-21T15:58:03;26.50;84.70
6484;DHT22;3275;52.376;9.694;2023-08-21T16:00:30;26.50;85.10
6484;DHT22;3275;52.376;9.694;2023-08-21T16:02:56;26.50;84.40
6484;DHT22;3275;52.376;9.694;2023-08-21T16:05:23;26.50;85.20
6484;DHT22;3275;52.376;9.694;2023-08-21T16:07:50;26.60;84.50
6484;DHT22;3275;52.376;9.694;2023-08-21T16:10:20;26.60;84.30
6484;DHT22;3275;52.376;9.694;2023-08-21T16:12:47;26.60;84.60
6484;DHT22;3275;52.376;9.694;2023-08-21T16:15:14;26.50;83.90
6484;DHT22;3275;52.376;9.694;2023-08-21T16:17:40;26.40;84.20
6484;DHT22;3275;52.376;9.694;2023-08-21T16:20:08;26.50;84.20
6484;DHT22;3275;52.376;9.694;2023-08-21T16:22:35;26.50;85.30
6484;DHT22;3275;52.376;9.694;2023-08-21T16:25:02;26.40;84.50
6484;DHT22;3275;52.376;9.694;2023-08-21T16:27:31;26.30;85.10
6484;DHT22;3275;52.376;9.694;2023-08-21T16:29:58;26.30;86.20
6484;DHT22;3275;52.376;9.694;2023-08-21T16:32:25;26.10;84.90
6484;DHT22;3275;52.376;9.694;2023-08-21T16:34:52;26.10;85.60
6484;DHT22;3275;52.376;9.694;2023-08-21T16:37:19;26.10;85.90
6484;DHT22;3275;52.376;9.694;2023-08-21T16:39:46;26.10;85.50
6484;DHT22;3275;52.376;9.694;2023-08-21T16:42:12;26.00;85.00
6484;DHT22;3275;52.376;9.694;2023-08-21T16:44:40;26.00;85.60
6484;DHT22;3275;52.376;9.694;2023-08-21T16:47:07;25.90;85.60
6484;DHT22;3275;52.376;9.694;2023-08-21T16:49:34;25.90;85.80
6484;DHT22;3275;52.376;9.694;2023-08-21T16:52:01;25.80;87.00
6484;DHT22;3275;52.376;9.694;2023-08-21T16:54:28;25.80;88.10
6484;DHT22;3275;52.376;9.694;2023-08-21T16:56:55;25.70;87.20
6484;DHT22;3275;52.376;9.694;2023-08-21T16:59:21;25.70;87.30
6484;DHT22;3275;52.376;9.694;2023-08-21T17:01:49;25.60;88.00
6484;DHT22;3275;52.376;9.694;2023-08-21T17:04:16;25.60;87.90
6484;DHT22;3275;52.376;9.694;2023-08-21T17:06:43;25.60;88.50
6484;DHT22;3275;52.376;9.694;2023-08-21T17:09:10;25.60;88.30
6484;DHT22;3275;52.376;9.694;2023-08-21T17:11:37;25.50;87.90
6484;DHT22;3275;52.376;9.694;2023-08-21T17:14:03;25.50;88.20
6484;DHT22;3275;52.376;9.694;2023-08-21T17:16:30;25.50;88.50
6484;DHT22;3275;52.376;9.694;2023-08-21T17:18:58;25.40;88.30
6484;DHT22;3275;52.376;9.694;2023-08-21T17:21:25;25.40;88.40
6484;DHT22;3275;52.376;9.694;2023-08-21T17:23:54;25.30;89.50
6484;DHT22;3275;52.376;9.694;2023-08-21T17:26:20;25.30;90.10
6484;DHT22;3275;52.376;9.694;2023-08-21T17:28:47;25.30;90.60
6484;DHT22;3275;52.376;9.694;2023-08-21T17:31:14;25.20;90.30
6484;DHT22;3275;52.376;9.694;2023-08-21T17:33:41;25.30;90.40
6484;DHT22;3275;52.376;9.694;2023-08-21T17:36:09;25.30;90.40
6484;DHT22;3275;52.376;9.694;2023-08-21T17:38:36;25.30;90.60
6484;DHT22;3275;52.376;9.694;2023-08-21T17:41:03;25.20;90.50
6484;DHT22;3275;52.376;9.694;2023-08-21T17:43:29;25.20;90.20
6484;DHT22;3275;52.376;9.694;2023-08-21T17:45:56;25.20;90.20
6484;DHT22;3275;52.376;9.694;2023-08-21T17:48:23;25.20;90.50
6484;DHT22;3275;52.376;9.694;2023-08-21T17:50:50;25.20;90.70
6484;DHT22;3275;52.376;9.694;2023-08-21T17:53:18;25.20;89.80
6484;DHT22;3275;52.376;9.694;2023-08-21T17:55:45;25.10;90.10
6484;DHT22;3275;52.376;9.694;2023-08-21T17:58:12;25.00;89.70
6484;DHT22;3275;52.376;9.694;2023-08-21T18:00:38;25.00;89.60
6484;DHT22;3275;52.376;9.694;2023-08-21T18:03:06;25.00;90.00
6484;DHT22;3275;52.376;9.694;2023-08-21T18:05:33;25.00;90.00
6484;DHT22;3275;52.376;9.694;2023-08-21T18:07:59;25.00;89.80
6484;DHT22;3275;52.376;9.694;2023-08-21T18:10:27;24.90;90.20
6484;DHT22;3275;52.376;9.694;2023-08-21T18:12:54;24.90;89.70
6484;DHT22;3275;52.376;9.694;2023-08-21T18:15:21;24.80;89.30
6484;DHT22;3275;52.376;9.694;2023-08-21T18:17:48;24.80;89.30
6484;DHT22;3275;52.376;9.694;2023-08-21T18:20:14;24.70;89.20
6484;DHT22;3275;52.376;9.694;2023-08-21T18:22:41;24.70;89.00
6484;DHT22;3275;52.376;9.694;2023-08-21T18:25:08;24.70;89.00
6484;DHT22;3275;52.376;9.694;2023-08-21T18:27:36;24.70;88.90
6484;DHT22;3275;52.376;9.694;2023-08-21T18:30:04;24.60;89.50
6484;DHT22;3275;52.376;9.694;2023-08-21T18:32:30;24.60;88.10
6484;DHT22;3275;52.376;9.694;2023-08-21T18:34:57;24.50;87.40
6484;DHT22;3275;52.376;9.694;2023-08-21T18:37:26;24.50;87.60
6484;DHT22;3275;52.376;9.694;2023-08-21T18:39:53;24.50;87.30
6484;DHT22;3275;52.376;9.694;2023-08-21T18:42:20;24.40;87.20
6484;DHT22;3275;52.376;9.694;2023-08-21T18:44:48;24.40;87.10
6484;DHT22;3275;52.376;9.694;2023-08-21T18:47:15;24.40;87.10
6484;DHT22;3275;52.376;9.694;2023-08-21T18:49:42;24.40;87.70
6484;DHT22;3275;52.376;9.694;2023-08-21T18:52:09;24.30;87.70
6484;DHT22;3275;52.376;9.694;2023-08-21T18:54:35;24.30;87.00
6484;DHT22;3275;52.376;9.694;2023-08-21T18:57:02;24.20;86.70
6484;DHT22;3275;52.376;9.694;2023-08-21T18:59:29;24.10;87.50
6484;DHT22;3275;52.376;9.694;2023-08-21T19:01:58;24.10;87.80
6484;DHT22;3275;52.376;9.694;2023-08-21T19:04:24;24.00;89.90
6484;DHT22;3275;52.376;9.694;2023-08-21T19:06:52;24.00;89.10
6484;DHT22;3275;52.376;9.694;2023-08-21T19:09:20;23.90;88.80
6484;DHT22;3275;52.376;9.694;2023-08-21T19:11:46;23.90;88.50
6484;DHT22;3275;52.376;9.694;2023-08-21T19:14:13;23.80;89.40
6484;DHT22;3275;52.376;9.694;2023-08-21T19:16:40;23.80;89.70
6484;DHT22;3275;52.376;9.694;2023-08-21T19:19:08;23.80;88.10
6484;DHT22;3275;52.376;9.694;2023-08-21T19:21:36;23.70;88.30
6484;DHT22;3275;52.376;9.694;2023-08-21T19:24:03;23.70;90.80
6484;DHT22;3275;52.376;9.694;2023-08-21T19:26:30;23.60;89.30
6484;DHT22;3275;52.376;9.694;2023-08-21T19:28:56;23.60;89.20
6484;DHT22;3275;52.376;9.694;2023-08-21T19:31:23;23.60;88.90
6484;DHT22;3275;52.376;9.694;2023-08-21T19:33:50;23.60;90.40
6484;DHT22;3275;52.376;9.694;2023-08-21T19:36:18;23.60;90.10
6484;DHT22;3275;52.376;9.694;2023-08-21T19:38:47;23.60;89.70
6484;DHT22;3275;52.376;9.694;2023-08-21T19:41:14;23.60;90.60
6484;DHT22;3275;52.376;9.694;2023-08-21T19:43:42;23.60;90.70
6484;DHT22;3275;52.376;9.694;2023-08-21T19:46:10;23.50;90.40
6484;DHT22;3275;52.376;9.694;2023-08-21T19:48:37;23.50;90.90
6484;DHT22;3275;52.376;9.694;2023-08-21T19:51:04;23.40;91.00
6484;DHT22;3275;52.376;9.694;2023-08-21T19:53:32;23.40;90.50
6484;DHT22;3275;52.376;9.694;2023-08-21T19:55:59;23.40;91.60
6484;DHT22;3275;52.376;9.694;2023-08-21T19:58:25;23.40;91.30
6484;DHT22;3275;52.376;9.694;2023-08-21T20:00:52;23.40;91.00
6484;DHT22;3275;52.376;9.694;2023-08-21T20:03:19;23.40;91.70
6484;DHT22;3275;52.376;9.694;2023-08-21T20:05:46;23.40;92.90
6484;DHT22;3275;52.376;9.694;2023-08-21T20:08:14;23.40;92.80
6484;DHT22;3275;52.376;9.694;2023-08-21T20:10:42;23.30;92.60
6484;DHT22;3275;52.376;9.694;2023-08-21T20:13:08;23.20;91.30
6484;DHT22;3275;52.376;9.694;2023-08-21T20:15:35;23.20;91.30
6484;DHT22;3275;52.376;9.694;2023-08-21T20:18:04;23.20;92.70
6484;DHT22;3275;52.376;9.694;2023-08-21T20:20:31;23.20;92.20
6484;DHT22;3275;52.376;9.694;2023-08-21T20:22:58;23.20;92.00
6484;DHT22;3275;52.376;9.694;2023-08-21T20:25:25;23.10;92.40
6484;DHT22;3275;52.376;9.694;2023-08-21T20:27:53;23.10;91.70
6484;DHT22;3275;52.376;9.694;2023-08-21T20:30:20;23.00;91.50
6484;DHT22;3275;52.376;9.694;2023-08-21T20:32:46;23.00;91.60
6484;DHT22;3275;52.376;9.694;2023-08-21T20:35:13;23.00;91.80
6484;DHT22;3275;52.376;9.694;2023-08-21T20:37:40;22.90;92.00
6484;DHT22;3275;52.376;9.694;2023-08-21T20:40:08;22.90;91.90
6484;DHT22;3275;52.376;9.694;2023-08-21T20:42:36;22.80;92.40
6484;DHT22;3275;52.376;9.694;2023-08-21T20:45:06;22.80;93.00
6484;DHT22;3275;52.376;9.694;2023-08-21T20:47:34;22.80;93.90
6484;DHT22;3275;52.376;9.694;2023-08-21T20:50:01;22.70;93.60
6484;DHT22;3275;52.376;9.694;2023-08-21T20:52:30;22.70;93.30
6484;DHT22;3275;52.376;9.694;2023-08-21T20:54:56;22.60;94.30
6484;DHT22;3275;52.376;9.694;2023-08-21T20:57:24;22.70;93.90
6484;DHT22;3275;52.376;9.694;2023-08-21T20:59:51;22.60;94.30
6484;DHT22;3275;52.376;9.694;2023-08-21T21:02:19;22.60;93.90
6484;DHT22;3275;52.376;9.694;2023-08-21T21:04:46;22.60;94.60
6484;DHT22;3275;52.376;9.694;2023-08-21T21:07:13;22.50;95.40
6484;DHT22;3275;52.376;9.694;2023-08-21T21:09:40;22.50;94.40
6484;DHT22;3275;52.376;9.694;2023-08-21T21:12:07;22.40;94.40
6484;DHT22;3275;52.376;9.694;2023-08-21T21:14:34;22.50;94.60
6484;DHT22;3275;52.376;9.694;2023-08-21T21:17:01;22.50;94.30
6484;DHT22;3275;52.376;9.694;2023-08-21T21:19:29;22.40;94.60
6484;DHT22;3275;52.376;9.694;2023-08-21T21:21:56;22.40;95.20
6484;DHT22;3275;52.376;9.694;2023-08-21T21:24:22;22.30;94.30
6484;DHT22;3275;52.376;9.694;2023-08-21T21:26:49;22.30;94.50
6484;DHT22;3275;52.376;9.694;2023-08-21T21:29:18;22.40;95.30
6484;DHT22;3275;52.376;9.694;2023-08-21T21:31:44;22.30;94.80
6484;DHT22;3275;52.376;9.694;2023-08-21T21:34:11;22.30;94.10
6484;DHT22;3275;52.376;9.694;2023-08-21T21:36:39;22.20;94.40
6484;DHT22;3275;52.376;9.694;2023-08-21T21:39:08;22.10;94.70
6484;DHT22;3275;52.376;9.694;2023-08-21T21:41:34;22.10;95.50
6484;DHT22;3275;52.376;9.694;2023-08-21T21:44:01;22.20;96.00
6484;DHT22;3275;52.376;9.694;2023-08-21T21:46:28;22.10;96.00
6484;DHT22;3275;52.376;9.694;2023-08-21T21:48:57;22.10;95.50
6484;DHT22;3275;52.376;9.694;2023-08-21T21:51:24;22.00;95.00
6484;DHT22;3275;52.376;9.694;2023-08-21T21:53:52;22.00;94.90
6484;DHT22;3275;52.376;9.694;2023-08-21T21:56:21;22.00;95.30
6484;DHT22;3275;52.376;9.694;2023-08-21T21:58:48;22.00;96.40
6484;DHT22;3275;52.376;9.694;2023-08-21T22:01:16;22.00;96.00
6484;DHT22;3275;52.376;9.694;2023-08-21T22:03:43;21.90;95.70
6484;DHT22;3275;52.376;9.694;2023-08-21T22:06:10;21.90;96.50
6484;DHT22;3275;52.376;9.694;2023-08-21T22:08:37;21.80;95.80
6484;DHT22;3275;52.376;9.694;2023-08-21T22:11:06;21.80;95.40
6484;DHT22;3275;52.376;9.694;2023-08-21T22:13:33;21.80;96.30
6484;DHT22;3275;52.376;9.694;2023-08-21T22:16:00;21.70;96.50
6484;DHT22;3275;52.376;9.694;2023-08-21T22:18:28;21.70;96.30
6484;DHT22;3275;52.376;9.694;2023-08-21T22:20:55;21.70;96.00
6484;DHT22;3275;52.376;9.694;2023-08-21T22:23:22;21.70;97.00
6484;DHT22;3275;52.376;9.694;2023-08-21T22:25:49;21.60;96.70
6484;DHT22;3275;52.376;9.694;2023-08-21T22:28:17;21.60;96.90
6484;DHT22;3275;52.376;9.694;2023-08-21T22:30:45;21.60;96.80
6484;DHT22;3275;52.376;9.694;2023-08-21T22:33:12;21.60;97.00
6484;DHT22;3275;52.376;9.694;2023-08-21T22:35:38;21.50;97.30
6484;DHT22;3275;52.376;9.694;2023-08-21T22:38:05;21.50;97.30
6484;DHT22;3275;52.376;9.694;2023-08-21T22:40:32;21.50;97.30
6484;DHT22;3275;52.376;9.694;2023-08-21T22:42:58;21.40;97.10
6484;DHT22;3275;52.376;9.694;2023-08-21T22:45:26;21.40;97.30
6484;DHT22;3275;52.376;9.694;2023-08-21T22:47:53;21.30;97.20
6484;DHT22;3275;52.376;9.694;2023-08-21T22:50:20;21.30;97.60
6484;DHT22;3275;52.376;9.694;2023-08-21T22:52:47;21.20;97.80
6484;DHT22;3275;52.376;9.694;2023-08-21T22:55:14;21.20;97.80
6484;DHT22;3275;52.376;9.694;2023-08-21T22:57:40;21.20;98.00
6484;DHT22;3275;52.376;9.694;2023-08-21T23:00:12;21.20;98.10
6484;DHT22;3275;52.376;9.694;2023-08-21T23:02:41;21.20;98.30
6484;DHT22;3275;52.376;9.694;2023-08-21T23:05:07;21.20;98.10
6484;DHT22;3275;52.376;9.694;2023-08-21T23:07:35;21.20;98.70
6484;DHT22;3275;52.376;9.694;2023-08-21T23:10:02;21.20;98.80
6484;DHT22;3275;52.376;9.694;2023-08-21T23:12:28;21.20;98.70
6484;DHT22;3275;52.376;9.694;2023-08-21T23:14:55;21.20;99.00
6484;DHT22;3275;52.376;9.694;2023-08-21T23:17:22;21.20;99.10
6484;DHT22;3275;52.376;9.694;2023-08-21T23:19:50;21.30;98.90
6484;DHT22;3275;52.376;9.694;2023-08-21T23:22:17;21.20;98.90
6484;DHT22;3275;52.376;9.694;2023-08-21T23:24:43;21.30;98.70
6484;DHT22;3275;52.376;9.694;2023-08-21T23:27:10;21.20;98.50
6484;DHT22;3275;52.376;9.694;2023-08-21T23:29:37;21.20;98.70
6484;DHT22;3275;52.376;9.694;2023-08-21T23:32:04;21.20;98.80
6484;DHT22;3275;52.376;9.694;2023-08-21T23:34:30;21.20;99.40
6484;DHT22;3275;52.376;9.694;2023-08-21T23:36:58;21.20;99.10
6484;DHT22;3275;52.376;9.694;2023-08-21T23:39:25;21.20;98.90
6484;DHT22;3275;52.376;9.694;2023-08-21T23:41:52;21.20;99.00
6484;DHT22;3275;52.376;9.694;2023-08-21T23:44:19;21.20;99.20
6484;DHT22;3275;52.376;9.694;2023-08-21T23:46:46;21.20;99.20
6484;DHT22;3275;52.376;9.694;2023-08-21T23:49:13;21.20;99.40
6484;DHT22;3275;52.376;9.694;2023-08-21T23:51:39;21.20;99.30
6484;DHT22;3275;52.376;9.694;2023-08-21T23:54:07;21.20;99.40
6484;DHT22;3275;52.376;9.694;2023-08-21T23:56:34;21.20;99.40
6484;DHT22;3275;52.376;9.694;2023-08-21T23:59:01;21.20;99.40
